Time;durP1;ratioP1;P1;durP2;ratioP2;P2;SDS_P1;SDS_P2;PMS_P1;PMS_P2;Temp;Humidity;BMP_temperature;BMP_pressure;BME280_temperature;BME280_humidity;BME280_pressure;Samples;Min_cycle;Max_cycle;Signal;HPM_P1;HPM_P2
2022/01/31 00:01:53;;;;;;;;;;;;;;;;;;4998612;28;19925;-58
2022/01/31 00:04:18;;;;;;;;;;;;;;;;;;4999236;28;19929;-59
2022/01/31 00:06:48;;;;;;;;;;;;;;;;;;4998912;28;19936;-57
2022/01/31 00:09:15;;;;;;;;;;;;;;;;;;4999641;28;19936;-57
2022/01/31 00:11:44;;;;;;;;;;;;;;;;;;4997789;28;19925;-58
2022/01/31 00:14:20;;;;;;;;;;;;;;;;;;4999506;28;19972;-57
2022/01/31 00:16:46;;;;;;;;;;;;;;;;;;4999105;28;20287;-57
2022/01/31 00:19:11;;;;;;;;;;;;;;;;;;4998987;28;19941;-58
2022/01/31 00:21:36;;;;;;;;;;;;;;;;;;4996289;28;19998;-57
2022/01/31 00:24:02;;;;;;;;;;;;;;;;;;4993838;28;19941;-57
2022/01/31 00:26:27;;;;;;;;;;;;;;;;;;4997863;28;19922;-57
2022/01/31 00:28:53;;;;;;;;;;;;;;;;;;4997808;28;19933;-57
2022/01/31 00:31:18;;;;;;;;;;;;;;;;;;4997026;28;19925;-57
2022/01/31 00:33:44;;;;;;;;;;;;;;;;;;4998296;28;19921;-56
2022/01/31 00:36:09;;;;;;;;;;;;;;;;;;4997904;28;19948;-57
2022/01/31 00:38:35;;;;;;;;;;;;;;;;;;4996138;28;19925;-57
2022/01/31 00:41:00;;;;;;;;;;;;;;;;;;4997672;28;20326;-58
2022/01/31 00:43:26;;;;;;;;;;;;;;;;;;4997039;28;19960;-58
2022/01/31 00:46:00;;;;;;;;;;;;;;;;;;4998250;28;20394;-58
2022/01/31 00:48:27;;;;;;;;;;;;;;;;;;4997620;28;19925;-58
2022/01/31 00:50:52;;;;;;;;;;;;;;;;;;4997687;28;20044;-58
2022/01/31 00:53:18;;;;;;;;;;;;;;;;;;4996606;28;19926;-58
2022/01/31 00:55:43;;;;;;;;;;;;;;;;;;4998528;28;19921;-58
2022/01/31 00:58:09;;;;;;;;;;;;;;;;;;4998778;28;19921;-58
2022/01/31 01:00:34;;;;;;;;;;;;;;;;;;4996897;28;19934;-57
2022/01/31 01:03:00;;;;;;;;;;;;;;;;;;4999722;28;19936;-55
2022/01/31 01:05:25;;;;;;;;;;;;;;;;;;4997286;28;19926;-57
2022/01/31 01:07:50;;;;;;;;;;;;;;;;;;4997733;28;19968;-57
2022/01/31 01:10:16;;;;;;;;;;;;;;;;;;4996614;28;20535;-58
2022/01/31 01:12:42;;;;;;;;;;;;;;;;;;4996536;28;20025;-60
2022/01/31 01:15:08;;;;;;;;;;;;;;;;;;4996536;28;19925;-57
2022/01/31 01:17:33;;;;;;;;;;;;;;;;;;4997202;28;20060;-58
2022/01/31 01:19:58;;;;;;;;;;;;;;;;;;4996539;28;20068;-58
2022/01/31 01:22:24;;;;;;;;;;;;;;;;;;4995072;28;19932;-56
2022/01/31 01:24:49;;;;;;;;;;;;;;;;;;4997152;28;20409;-57
2022/01/31 01:27:18;;;;;;;;;;;;;;;;;;4996998;28;19960;-58
2022/01/31 01:29:43;;;;;;;;;;;;;;;;;;4995986;28;19932;-58
2022/01/31 01:32:10;;;;;;;;;;;;;;;;;;4996880;28;19925;-59
2022/01/31 01:34:35;;;;;;;;;;;;;;;;;;4996298;28;19929;-56
2022/01/31 01:37:01;;;;;;;;;;;;;;;;;;4997456;28;19926;-58
2022/01/31 01:39:26;;;;;;;;;;;;;;;;;;4996473;28;19936;-56
2022/01/31 01:41:52;;;;;;;;;;;;;;;;;;4996658;28;19925;-55
2022/01/31 01:44:17;;;;;;;;;;;;;;;;;;4995949;28;20643;-56
2022/01/31 01:46:43;;;;;;;;;;;;;;;;;;4997240;28;20415;-56
2022/01/31 01:49:08;;;;;;;;;;;;;;;;;;4997021;28;19917;-56
2022/01/31 01:51:34;;;;;;;;;;;;;;;;;;4995855;28;19940;-58
2022/01/31 01:53:59;;;;;;;;;;;;;;;;;;4997724;28;19922;-58
2022/01/31 01:56:25;;;;;;;;;;;;;;;;;;4996493;28;19925;-55
2022/01/31 01:58:50;;;;;;;;;;;;;;;;;;4997052;28;20306;-57
2022/01/31 02:01:16;;;;;;;;;;;;;;;;;;4997064;28;20039;-55
2022/01/31 02:03:41;;;;;;;;;;;;;;;;;;4996181;28;19929;-57
2022/01/31 02:06:07;;;;;;;;;;;;;;;;;;4997306;28;19925;-57
2022/01/31 02:08:50;;;;;;;;;;;;;;;;;;4996559;28;19921;-56
2022/01/31 02:11:15;;;;;;;;;;;;;;;;;;4995775;28;19922;-56
2022/01/31 02:13:41;;;;;;;;;;;;;;;;;;4996965;28;19933;-57
2022/01/31 02:16:06;;;;;;;;;;;;;;;;;;4997023;28;20313;-57
2022/01/31 02:18:32;;;;;;;;;;;;;;;;;;4997428;28;19925;-53
2022/01/31 02:20:57;;;;;;;;;;;;;;;;;;4997672;28;19921;-55
2022/01/31 02:23:22;;;;;;;;;;;;;;;;;;5002671;28;19930;-57
2022/01/31 02:25:48;;;;;;;;;;;;;;;;;;5002541;28;19918;-56
2022/01/31 02:28:13;;;;;;;;;;;;;;;;;;5001450;28;19956;-57
2022/01/31 02:30:39;;;;;;;;;;;;;;;;;;5003159;28;19952;-56
2022/01/31 02:33:04;;;;;;;;;;;;;;;;;;5001368;28;19972;-55
2022/01/31 02:35:30;;;;;;;;;;;;;;;;;;5001761;28;19925;-53
2022/01/31 02:37:55;;;;;;;;;;;;;;;;;;5001928;28;19921;-54
2022/01/31 02:40:20;;;;;;;;;;;;;;;;;;5000170;28;21687;-54
2022/01/31 02:42:46;;;;;;;;;;;;;;;;;;5001356;28;19926;-53
2022/01/31 02:45:11;;;;;;;;;;;;;;;;;;5001106;28;19929;-57
2022/01/31 02:47:40;;;;;;;;;;;;;;;;;;5001059;28;22227;-56
2022/01/31 02:50:08;;;;;;;;;;;;;;;;;;5001139;28;19925;-57
2022/01/31 02:52:36;;;;;;;;;;;;;;;;;;5000833;28;19976;-55
2022/01/31 02:55:01;;;;;;;;;;;;;;;;;;4999515;28;19948;-57
2022/01/31 02:57:27;;;;;;;;;;;;;;;;;;4998741;28;19923;-54
2022/01/31 02:59:52;;;;;;;;;;;;;;;;;;4999782;28;19929;-55
2022/01/31 03:02:17;;;;;;;;;;;;;;;;;;4999067;28;19930;-56
2022/01/31 03:04:43;;;;;;;;;;;;;;;;;;4999422;28;19972;-56
2022/01/31 03:07:08;;;;;;;;;;;;;;;;;;5000604;28;19929;-55
2022/01/31 03:09:34;;;;;;;;;;;;;;;;;;5001172;28;19932;-54
2022/01/31 03:11:59;;;;;;;;;;;;;;;;;;4998744;28;20271;-56
2022/01/31 03:14:25;;;;;;;;;;;;;;;;;;4999795;28;19972;-56
2022/01/31 03:16:50;;;;;;;;;;;;;;;;;;5000018;28;19968;-56
2022/01/31 03:19:16;;;;;;;;;;;;;;;;;;5000388;28;20008;-55
2022/01/31 03:21:41;;;;;;;;;;;;;;;;;;4999241;28;19957;-56
2022/01/31 03:24:07;;;;;;;;;;;;;;;;;;4999430;28;20445;-55
2022/01/31 03:26:32;;;;;;;;;;;;;;;;;;4999547;28;21021;-57
2022/01/31 03:28:57;;;;;;;;;;;;;;;;;;5001143;28;19922;-57
2022/01/31 03:31:23;;;;;;;;;;;;;;;;;;5006995;28;19932;-56
2022/01/31 03:33:48;;;;;;;;;;;;;;;;;;4999809;28;19922;-56
2022/01/31 03:36:14;;;;;;;;;;;;;;;;;;4998398;28;19925;-55
2022/01/31 03:38:41;;;;;;;;;;;;;;;;;;4992657;28;19948;-54
2022/01/31 03:41:06;;;;;;;;;;;;;;;;;;5000454;28;19987;-53
2022/01/31 03:43:32;;;;;;;;;;;;;;;;;;4999976;28;20731;-55
2022/01/31 03:45:57;;;;;;;;;;;;;;;;;;4998138;28;20315;-56
2022/01/31 03:48:24;;;;;;;;;;;;;;;;;;4998533;28;20290;-55
2022/01/31 03:50:50;;;;;;;;;;;;;;;;;;4999269;28;20040;-57
2022/01/31 03:53:15;;;;;;;;;;;;;;;;;;4999100;28;19955;-57
2022/01/31 03:55:41;;;;;;;;;;;;;;;;;;4997289;28;19917;-57
2022/01/31 03:58:06;;;;;;;;;;;;;;;;;;4999388;28;19929;-57
2022/01/31 04:00:32;;;;;;;;;;;;;;;;;;4997691;28;19925;-55
2022/01/31 04:02:57;;;;;;;;;;;;;;;;;;4998950;28;19976;-56
2022/01/31 04:05:22;;;;;;;;;;;;;;;;;;4998954;28;19925;-57
2022/01/31 04:07:48;;;;;;;;;;;;;;;;;;4998983;28;19921;-57
2022/01/31 04:10:13;;;;;;;;;;;;;;;;;;4998720;28;19979;-57
2022/01/31 04:12:39;;;;;;;;;;;;;;;;;;4994130;28;19921;-56
2022/01/31 04:15:04;;;;;;;;;;;;;;;;;;4998855;28;19926;-56
2022/01/31 04:17:32;;;;;;;;;;;;;;;;;;4998740;28;19991;-55
2022/01/31 04:19:57;;;;;;;;;;;;;;;;;;4998087;28;20281;-56
2022/01/31 04:22:25;;;;;;;;;;;;;;;;;;4997530;28;19925;-56
2022/01/31 04:24:55;;;;;;;;;;;;;;;;;;4998039;28;19993;-57
2022/01/31 04:27:21;;;;;;;;;;;;;;;;;;4998309;28;20079;-57
2022/01/31 04:29:48;;;;;;;;;;;;;;;;;;4990885;28;19917;-57
2022/01/31 04:32:31;;;;;;;;;;;;;;;;;;4975271;28;19922;-56
2022/01/31 04:34:57;;;;;;;;;;;;;;;;;;4971708;28;19926;-57
2022/01/31 04:37:22;;;;;;;;;;;;;;;;;;4972280;28;19969;-56
2022/01/31 04:39:47;;;;;;;;;;;;;;;;;;4972400;28;19934;-57
2022/01/31 04:42:13;;;;;;;;;;;;;;;;;;4972319;28;20044;-55
2022/01/31 04:44:38;;;;;;;;;;;;;;;;;;4972773;28;20028;-55
2022/01/31 04:47:04;;;;;;;;;;;;;;;;;;4972310;28;20670;-56
2022/01/31 04:49:29;;;;;;;;;;;;;;;;;;4971528;28;19922;-56
2022/01/31 04:51:55;;;;;;;;;;;;;;;;;;4973754;28;20021;-57
2022/01/31 04:54:20;;;;;;;;;;;;;;;;;;4973539;28;19975;-57
2022/01/31 04:56:46;;;;;;;;;;;;;;;;;;4973286;28;20850;-56
2022/01/31 04:59:12;;;;;;;;;;;;;;;;;;4977743;28;19934;-56
2022/01/31 05:01:43;;;;;;;;;;;;;;;;;;4973183;28;19933;-56
2022/01/31 05:04:08;;;;;;;;;;;;;;;;;;4990831;28;19922;-55
2022/01/31 05:06:37;;;;;;;;;;;;;;;;;;4996786;28;19948;-56
2022/01/31 05:09:03;;;;;;;;;;;;;;;;;;4998288;28;20021;-57
2022/01/31 05:11:28;;;;;;;;;;;;;;;;;;4996946;28;20304;-56
2022/01/31 05:13:54;;;;;;;;;;;;;;;;;;4997675;28;19941;-55
2022/01/31 05:16:19;;;;;;;;;;;;;;;;;;5001434;28;20319;-57
2022/01/31 05:18:45;;;;;;;;;;;;;;;;;;5000673;28;20259;-57
2022/01/31 05:21:10;;;;;;;;;;;;;;;;;;5000125;28;19921;-57
2022/01/31 05:23:36;;;;;;;;;;;;;;;;;;5000231;28;19997;-57
2022/01/31 05:26:01;;;;;;;;;;;;;;;;;;4999503;28;20048;-57
2022/01/31 05:28:27;;;;;;;;;;;;;;;;;;4998685;28;19929;-55
2022/01/31 05:30:52;;;;;;;;;;;;;;;;;;4996661;28;19928;-57
2022/01/31 05:33:18;;;;;;;;;;;;;;;;;;4998039;28;19926;-57
2022/01/31 05:35:45;;;;;;;;;;;;;;;;;;4998126;28;19922;-57
2022/01/31 05:38:10;;;;;;;;;;;;;;;;;;4998284;28;19922;-57
2022/01/31 05:40:36;;;;;;;;;;;;;;;;;;4996784;28;19933;-56
2022/01/31 05:43:01;;;;;;;;;;;;;;;;;;4998640;28;19969;-55
2022/01/31 05:45:27;;;;;;;;;;;;;;;;;;4998693;28;20592;-56
2022/01/31 05:47:52;;;;;;;;;;;;;;;;;;5000596;28;20524;-55
2022/01/31 05:50:18;;;;;;;;;;;;;;;;;;5001516;28;19991;-57
2022/01/31 05:52:43;;;;;;;;;;;;;;;;;;5002886;28;19921;-56
2022/01/31 05:55:09;;;;;;;;;;;;;;;;;;5000778;28;19928;-55
2022/01/31 05:57:34;;;;;;;;;;;;;;;;;;5002764;28;19930;-57
2022/01/31 06:00:00;;;;;;;;;;;;;;;;;;5001997;28;19940;-56
2022/01/31 06:02:25;;;;;;;;;;;;;;;;;;4994459;28;19925;-55
2022/01/31 06:04:50;;;;;;;;;;;;;;;;;;5002109;28;20540;-55
2022/01/31 06:07:16;;;;;;;;;;;;;;;;;;4999661;28;20637;-56
2022/01/31 06:09:41;;;;;;;;;;;;;;;;;;5002416;28;20438;-57
2022/01/31 06:12:07;;;;;;;;;;;;;;;;;;5000387;28;19921;-56
2022/01/31 06:14:32;;;;;;;;;;;;;;;;;;4996148;28;19921;-54
2022/01/31 06:16:58;;;;;;;;;;;;;;;;;;4997786;28;19938;-56
2022/01/31 06:19:23;;;;;;;;;;;;;;;;;;4995004;28;19933;-57
2022/01/31 06:21:49;;;;;;;;;;;;;;;;;;4997988;28;19921;-56
2022/01/31 06:24:15;;;;;;;;;;;;;;;;;;4995766;28;20313;-56
2022/01/31 06:26:40;;;;;;;;;;;;;;;;;;4995896;28;19993;-55
2022/01/31 06:29:06;;;;;;;;;;;;;;;;;;4998146;28;19925;-55
2022/01/31 06:31:31;;;;;;;;;;;;;;;;;;4994949;28;19960;-55
2022/01/31 06:33:57;;;;;;;;;;;;;;;;;;4996466;28;19980;-54
2022/01/31 06:36:23;;;;;;;;;;;;;;;;;;4996190;28;19925;-54
2022/01/31 06:38:48;;;;;;;;;;;;;;;;;;4998002;28;19999;-55
2022/01/31 06:41:16;;;;;;;;;;;;;;;;;;4996054;28;20024;-55
2022/01/31 06:43:41;;;;;;;;;;;;;;;;;;4996299;28;19960;-55
2022/01/31 06:46:07;;;;;;;;;;;;;;;;;;4997103;28;20052;-56
2022/01/31 06:48:32;;;;;;;;;;;;;;;;;;4996961;28;19933;-55
2022/01/31 06:50:58;;;;;;;;;;;;;;;;;;4997184;28;20532;-56
2022/01/31 06:53:28;;;;;;;;;;;;;;;;;;5002838;28;20304;-57
2022/01/31 06:55:53;;;;;;;;;;;;;;;;;;4996513;28;19921;-56
2022/01/31 06:58:19;;;;;;;;;;;;;;;;;;4997514;28;20331;-55
2022/01/31 07:00:44;;;;;;;;;;;;;;;;;;4996236;28;19937;-53
2022/01/31 07:03:13;;;;;;;;;;;;;;;;;;4997193;28;19926;-54
2022/01/31 07:05:38;;;;;;;;;;;;;;;;;;4995541;28;19968;-54
2022/01/31 07:08:03;;;;;;;;;;;;;;;;;;4998783;28;19984;-53
2022/01/31 07:10:29;;;;;;;;;;;;;;;;;;5000037;28;20032;-54
2022/01/31 07:12:56;;;;;;;;;;;;;;;;;;5000415;28;19925;-55
2022/01/31 07:15:21;;;;;;;;;;;;;;;;;;4998643;28;19921;-54
2022/01/31 07:17:47;;;;;;;;;;;;;;;;;;5000813;28;19925;-55
2022/01/31 07:20:20;;;;;;;;;;;;;;;;;;4999092;28;19929;-55
2022/01/31 07:22:52;;;;;;;;;;;;;;;;;;4999864;28;19972;-54
2022/01/31 07:25:34;;;;;;;;;;;;;;;;;;5000378;28;19979;-55
2022/01/31 07:27:59;;;;;;;;;;;;;;;;;;5000736;28;20969;-53
2022/01/31 07:30:25;;;;;;;;;;;;;;;;;;4998729;28;19921;-54
2022/01/31 07:32:50;;;;;;;;;;;;;;;;;;5000489;28;19937;-55
2022/01/31 07:35:16;;;;;;;;;;;;;;;;;;5001089;28;20000;-53
2022/01/31 07:37:41;;;;;;;;;;;;;;;;;;4999983;28;20470;-56
2022/01/31 07:40:07;;;;;;;;;;;;;;;;;;4999494;28;20393;-54
2022/01/31 07:42:32;;;;;;;;;;;;;;;;;;4999702;28;20575;-53
2022/01/31 07:44:57;;;;;;;;;;;;;;;;;;4999739;28;19925;-56
2022/01/31 07:47:23;;;;;;;;;;;;;;;;;;4990087;28;20059;-55
2022/01/31 07:49:51;;;;;;;;;;;;;;;;;;5000735;28;20371;-55
2022/01/31 07:52:16;;;;;;;;;;;;;;;;;;5001123;28;19980;-53
2022/01/31 07:54:43;;;;;;;;;;;;;;;;;;4999336;28;19925;-53
2022/01/31 07:57:09;;;;;;;;;;;;;;;;;;5000758;28;19929;-55
2022/01/31 07:59:34;;;;;;;;;;;;;;;;;;4999499;28;19933;-55
2022/01/31 08:01:59;;;;;;;;;;;;;;;;;;4999755;28;19922;-53
2022/01/31 08:04:25;;;;;;;;;;;;;;;;;;4999808;28;19971;-54
2022/01/31 08:06:50;;;;;;;;;;;;;;;;;;5001665;28;20370;-55
2022/01/31 08:09:16;;;;;;;;;;;;;;;;;;5000069;28;19925;-56
2022/01/31 08:11:41;;;;;;;;;;;;;;;;;;4999915;28;19975;-53
2022/01/31 08:14:10;;;;;;;;;;;;;;;;;;5000517;28;19922;-54
2022/01/31 08:16:36;;;;;;;;;;;;;;;;;;5003064;28;19965;-55
2022/01/31 08:19:02;;;;;;;;;;;;;;;;;;5005811;28;20109;-56
2022/01/31 08:21:27;;;;;;;;;;;;;;;;;;5003534;28;19951;-56
2022/01/31 08:23:53;;;;;;;;;;;;;;;;;;4999056;28;19934;-55
2022/01/31 08:26:18;;;;;;;;;;;;;;;;;;4998800;28;20437;-52
2022/01/31 08:31:19;;;;;;;;;;;;;;;;;;4999276;28;19933;-55
2022/01/31 08:36:16;;;;;;;;;;;;;;;;;;4999282;28;19928;-55
2022/01/31 08:38:42;;;;;;;;;;;;;;;;;;4997246;28;19925;-55
2022/01/31 08:41:07;;;;;;;;;;;;;;;;;;4998419;28;19921;-53
2022/01/31 08:43:33;;;;;;;;;;;;;;;;;;4998140;28;19971;-54
2022/01/31 08:45:58;;;;;;;;;;;;;;;;;;4998309;28;20115;-53
2022/01/31 08:48:24;;;;;;;;;;;;;;;;;;4998670;28;19933;-54
2022/01/31 08:50:49;;;;;;;;;;;;;;;;;;4997987;28;19921;-54
2022/01/31 08:53:14;;;;;;;;;;;;;;;;;;4998951;28;19917;-54
2022/01/31 08:55:40;;;;;;;;;;;;;;;;;;4991432;28;19925;-54
2022/01/31 08:58:06;;;;;;;;;;;;;;;;;;5006479;28;20001;-56
2022/01/31 09:00:36;;;;;;;;;;;;;;;;;;4996291;28;19980;-54
2022/01/31 09:03:34;;;;;;;;;;;;;;;;;;4999101;28;20393;-56
2022/01/31 09:05:49;;;;;;;;;;;;;;;;;;4997404;28;20773;-56
2022/01/31 09:08:15;;;;;;;;;;;;;;;;;;4996545;28;19917;-57
2022/01/31 09:10:43;;;;;;;;;;;;;;;;;;4997009;28;19941;-56
2022/01/31 09:13:10;;;;;;;;;;;;;;;;;;4998327;28;20008;-56
2022/01/31 09:15:35;;;;;;;;;;;;;;;;;;4999871;28;19941;-54
2022/01/31 09:18:01;;;;;;;;;;;;;;;;;;4999487;28;19921;-54
2022/01/31 09:20:26;;;;;;;;;;;;;;;;;;4998310;28;19941;-57
2022/01/31 09:22:52;;;;;;;;;;;;;;;;;;4999717;28;19929;-55
2022/01/31 09:25:17;;;;;;;;;;;;;;;;;;4999008;28;19941;-57
2022/01/31 09:27:43;;;;;;;;;;;;;;;;;;4998571;28;20051;-53
2022/01/31 09:30:09;;;;;;;;;;;;;;;;;;4998604;28;19978;-55
2022/01/31 09:32:34;;;;;;;;;;;;;;;;;;4999370;28;19926;-54
2022/01/31 09:35:00;;;;;;;;;;;;;;;;;;4998434;28;19926;-56
2022/01/31 09:37:26;;;;;;;;;;;;;;;;;;4999140;28;20301;-56
2022/01/31 09:39:52;;;;;;;;;;;;;;;;;;4999880;28;19933;-54
2022/01/31 09:42:28;;;;;;;;;;;;;;;;;;5001632;28;19922;-56
2022/01/31 09:45:21;;;;;;;;;;;;;;;;;;5002666;28;20485;-56
2022/01/31 09:50:22;;;;;;;;;;;;;;;;;;5001238;28;19925;-57
2022/01/31 09:52:48;;;;;;;;;;;;;;;;;;5003884;28;19933;-57
2022/01/31 09:55:14;;;;;;;;;;;;;;;;;;5003828;28;19917;-57
2022/01/31 09:57:39;;;;;;;;;;;;;;;;;;5002239;28;20020;-57
2022/01/31 10:00:05;;;;;;;;;;;;;;;;;;5003800;28;19929;-57
2022/01/31 10:02:30;;;;;;;;;;;;;;;;;;5001360;28;19961;-57
2022/01/31 10:04:55;;;;;;;;;;;;;;;;;;5000898;28;19922;-56
2022/01/31 10:07:21;;;;;;;;;;;;;;;;;;4998156;28;19921;-55
2022/01/31 10:09:48;;;;;;;;;;;;;;;;;;4997938;28;19925;-57
2022/01/31 10:17:29;;;;;;;;;;;;;;;;;;4996792;28;19932;-56
2022/01/31 10:19:55;;;;;;;;;;;;;;;;;;4996951;28;19929;-56
2022/01/31 10:22:20;;;;;;;;;;;;;;;;;;4998254;28;20004;-54
2022/01/31 10:24:46;;;;;;;;;;;;;;;;;;4997172;28;19929;-57
2022/01/31 10:27:11;;;;;;;;;;;;;;;;;;4997287;28;19989;-55
2022/01/31 10:29:37;;;;;;;;;;;;;;;;;;4996117;28;19925;-57
2022/01/31 10:32:02;;;;;;;;;;;;;;;;;;4997617;28;19925;-57
2022/01/31 10:34:29;;;;;;;;;;;;;;;;;;4996259;28;19921;-55
2022/01/31 10:36:54;;;;;;;;;;;;;;;;;;4998505;28;19926;-57
2022/01/31 10:45:20;;;;;;;;;;;;;;;;;;5001202;28;20064;-57
2022/01/31 10:53:10;;;;;;;;;;;;;;;;;;5000673;28;19960;-57
2022/01/31 10:55:36;;;;;;;;;;;;;;;;;;5001429;28;19921;-53
2022/01/31 10:58:01;;;;;;;;;;;;;;;;;;5001769;28;19932;-57
2022/01/31 11:00:27;;;;;;;;;;;;;;;;;;5001462;28;19936;-56
2022/01/31 11:02:52;;;;;;;;;;;;;;;;;;5001925;28;19945;-55
2022/01/31 11:05:18;;;;;;;;;;;;;;;;;;4999910;28;19921;-56
2022/01/31 11:07:43;;;;;;;;;;;;;;;;;;4998642;28;19925;-57
2022/01/31 11:10:08;;;;;;;;;;;;;;;;;;5000591;28;19917;-56
2022/01/31 11:12:34;;;;;;;;;;;;;;;;;;5000062;28;19925;-55
2022/01/31 11:14:59;;;;;;;;;;;;;;;;;;5000688;28;19926;-55
2022/01/31 11:17:25;;;;;;;;;;;;;;;;;;4998358;28;19922;-55
2022/01/31 11:19:56;;;;;;;;;;;;;;;;;;4999081;28;19940;-56
2022/01/31 11:22:28;;;;;;;;;;;;;;;;;;4998781;28;19921;-56
2022/01/31 11:24:54;;;;;;;;;;;;;;;;;;4998946;28;19933;-56
2022/01/31 11:27:19;;;;;;;;;;;;;;;;;;4999659;28;19968;-56
2022/01/31 11:29:44;;;;;;;;;;;;;;;;;;5001066;28;19929;-54
2022/01/31 11:32:10;;;;;;;;;;;;;;;;;;5001061;28;19929;-56
2022/01/31 11:34:35;;;;;;;;;;;;;;;;;;5001649;28;20027;-57
2022/01/31 11:37:01;;;;;;;;;;;;;;;;;;5012492;28;19921;-56
2022/01/31 11:39:26;;;;;;;;;;;;;;;;;;5003502;28;19936;-56
2022/01/31 11:41:52;;;;;;;;;;;;;;;;;;5003198;28;19956;-54
2022/01/31 11:44:17;;;;;;;;;;;;;;;;;;5000764;28;19953;-57
2022/01/31 11:46:43;;;;;;;;;;;;;;;;;;5000101;28;19972;-56
2022/01/31 11:49:08;;;;;;;;;;;;;;;;;;5000558;28;19992;-55
2022/01/31 11:51:35;;;;;;;;;;;;;;;;;;4999182;28;19968;-56
2022/01/31 11:54:01;;;;;;;;;;;;;;;;;;4999455;28;19941;-57
2022/01/31 11:56:26;;;;;;;;;;;;;;;;;;4998179;28;20292;-53
2022/01/31 11:58:52;;;;;;;;;;;;;;;;;;4999534;28;19972;-53
2022/01/31 12:01:17;;;;;;;;;;;;;;;;;;4999527;28;19922;-55
2022/01/31 12:03:43;;;;;;;;;;;;;;;;;;5000091;28;20008;-55
2022/01/31 12:06:08;;;;;;;;;;;;;;;;;;4998711;28;19999;-56
2022/01/31 12:08:35;;;;;;;;;;;;;;;;;;4997667;28;20454;-53
2022/01/31 12:11:10;;;;;;;;;;;;;;;;;;5000640;28;19922;-56
2022/01/31 12:13:41;;;;;;;;;;;;;;;;;;4999002;28;20024;-56
2022/01/31 12:23:44;;;;;;;;;;;;;;;;;;5000560;28;19936;-56
2022/01/31 12:26:09;;;;;;;;;;;;;;;;;;4998609;28;19921;-53
2022/01/31 12:28:35;;;;;;;;;;;;;;;;;;4998069;28;20055;-56
2022/01/31 12:31:00;;;;;;;;;;;;;;;;;;4999353;28;19922;-53
2022/01/31 12:33:26;;;;;;;;;;;;;;;;;;4998400;28;19925;-56
2022/01/31 12:35:52;;;;;;;;;;;;;;;;;;5000238;28;19933;-55
2022/01/31 12:38:17;;;;;;;;;;;;;;;;;;4997640;28;20358;-55
2022/01/31 12:40:45;;;;;;;;;;;;;;;;;;4999599;28;19933;-54
2022/01/31 12:43:23;;;;;;;;;;;;;;;;;;4999404;28;19964;-56
2022/01/31 12:45:48;;;;;;;;;;;;;;;;;;4998113;28;19926;-56
2022/01/31 12:48:17;;;;;;;;;;;;;;;;;;4997935;28;20409;-54
2022/01/31 12:50:42;;;;;;;;;;;;;;;;;;4997574;28;19921;-53
2022/01/31 12:53:08;;;;;;;;;;;;;;;;;;5000123;28;20432;-56
2022/01/31 12:55:33;;;;;;;;;;;;;;;;;;4998409;28;19948;-53
2022/01/31 12:57:59;;;;;;;;;;;;;;;;;;4998509;28;20445;-57
2022/01/31 13:00:24;;;;;;;;;;;;;;;;;;4997771;28;19984;-57
2022/01/31 13:02:50;;;;;;;;;;;;;;;;;;4998031;28;19944;-54
2022/01/31 13:05:15;;;;;;;;;;;;;;;;;;4997129;28;19928;-55
2022/01/31 13:07:41;;;;;;;;;;;;;;;;;;4997439;28;19931;-56
2022/01/31 13:10:06;;;;;;;;;;;;;;;;;;4999187;28;19921;-57
2022/01/31 13:12:31;;;;;;;;;;;;;;;;;;4998118;28;19931;-56
2022/01/31 13:14:57;;;;;;;;;;;;;;;;;;4998467;28;20036;-56
2022/01/31 13:17:24;;;;;;;;;;;;;;;;;;4997284;28;20017;-56
2022/01/31 13:19:49;;;;;;;;;;;;;;;;;;4998226;28;20008;-53
2022/01/31 13:22:17;;;;;;;;;;;;;;;;;;5000618;28;20036;-55
2022/01/31 13:24:42;;;;;;;;;;;;;;;;;;4998638;28;19930;-52
2022/01/31 13:27:08;;;;;;;;;;;;;;;;;;4998111;28;19925;-56
2022/01/31 13:29:33;;;;;;;;;;;;;;;;;;4996501;28;19996;-55
2022/01/31 13:31:59;;;;;;;;;;;;;;;;;;4998798;28;19952;-57
2022/01/31 13:34:24;;;;;;;;;;;;;;;;;;4998590;28;19933;-55
2022/01/31 13:36:50;;;;;;;;;;;;;;;;;;5001238;28;19917;-54
2022/01/31 13:39:15;;;;;;;;;;;;;;;;;;4998577;28;19933;-54
2022/01/31 13:41:41;;;;;;;;;;;;;;;;;;4998207;28;19921;-53
2022/01/31 13:44:06;;;;;;;;;;;;;;;;;;5001056;28;20266;-54
2022/01/31 13:46:38;;;;;;;;;;;;;;;;;;4999488;28;20557;-55
2022/01/31 13:51:35;;;;;;;;;;;;;;;;;;5002615;28;19970;-56
2022/01/31 13:54:00;;;;;;;;;;;;;;;;;;5004440;28;19921;-56
2022/01/31 13:56:26;;;;;;;;;;;;;;;;;;5001720;28;20033;-56
2022/01/31 13:58:51;;;;;;;;;;;;;;;;;;5002763;28;19925;-56
2022/01/31 14:01:16;;;;;;;;;;;;;;;;;;4998321;28;19988;-56
2022/01/31 14:03:42;;;;;;;;;;;;;;;;;;5002783;28;19973;-56
2022/01/31 14:06:07;;;;;;;;;;;;;;;;;;4999855;28;20064;-56
2022/01/31 14:08:36;;;;;;;;;;;;;;;;;;4998052;28;19975;-53
2022/01/31 14:11:01;;;;;;;;;;;;;;;;;;4999087;28;19922;-56
2022/01/31 14:13:28;;;;;;;;;;;;;;;;;;4998481;28;19928;-56
2022/01/31 14:15:54;;;;;;;;;;;;;;;;;;4998342;28;19930;-55
2022/01/31 14:18:19;;;;;;;;;;;;;;;;;;4995600;28;19974;-56
2022/01/31 14:20:45;;;;;;;;;;;;;;;;;;4999065;28;19984;-55
2022/01/31 14:23:10;;;;;;;;;;;;;;;;;;4996878;28;20032;-54
2022/01/31 14:25:36;;;;;;;;;;;;;;;;;;4996797;28;20029;-56
2022/01/31 14:28:01;;;;;;;;;;;;;;;;;;4997231;28;19921;-56
2022/01/31 14:30:27;;;;;;;;;;;;;;;;;;4997410;28;19952;-55
2022/01/31 14:32:53;;;;;;;;;;;;;;;;;;4997538;28;20387;-55
2022/01/31 14:35:18;;;;;;;;;;;;;;;;;;4997151;28;19925;-56
2022/01/31 14:37:43;;;;;;;;;;;;;;;;;;4997727;28;20038;-54
2022/01/31 14:40:25;;;;;;;;;;;;;;;;;;4996457;28;20485;-53
2022/01/31 14:42:57;;;;;;;;;;;;;;;;;;4996245;28;19929;-55
2022/01/31 14:48:06;;;;;;;;;;;;;;;;;;4996784;28;20138;-56
2022/01/31 14:50:34;;;;;;;;;;;;;;;;;;4996250;28;19921;-57
2022/01/31 14:53:00;;;;;;;;;;;;;;;;;;4997187;28;19922;-57
2022/01/31 14:55:25;;;;;;;;;;;;;;;;;;4996509;28;19975;-57
2022/01/31 14:57:51;;;;;;;;;;;;;;;;;;4997343;28;20012;-56
2022/01/31 15:00:16;;;;;;;;;;;;;;;;;;4997234;28;20088;-53
2022/01/31 15:02:42;;;;;;;;;;;;;;;;;;4997602;28;20008;-57
2022/01/31 15:05:07;;;;;;;;;;;;;;;;;;4996815;28;19953;-55
2022/01/31 15:07:32;;;;;;;;;;;;;;;;;;4996735;28;20055;-56
2022/01/31 15:09:58;;;;;;;;;;;;;;;;;;4996917;28;20057;-57
2022/01/31 15:12:23;;;;;;;;;;;;;;;;;;4996367;28;19921;-57
2022/01/31 15:14:49;;;;;;;;;;;;;;;;;;4996661;28;20190;-57
2022/01/31 15:17:14;;;;;;;;;;;;;;;;;;4996836;28;19988;-57
2022/01/31 15:19:40;;;;;;;;;;;;;;;;;;4995886;28;19972;-56
2022/01/31 15:22:06;;;;;;;;;;;;;;;;;;4997190;28;20038;-56
2022/01/31 15:24:31;;;;;;;;;;;;;;;;;;4995385;28;19929;-56
2022/01/31 15:26:57;;;;;;;;;;;;;;;;;;4998222;28;19932;-58
2022/01/31 15:29:22;;;;;;;;;;;;;;;;;;5000250;28;20543;-57
2022/01/31 15:31:48;;;;;;;;;;;;;;;;;;5002240;28;19925;-57
2022/01/31 15:34:13;;;;;;;;;;;;;;;;;;5002485;28;19952;-58
2022/01/31 15:36:38;;;;;;;;;;;;;;;;;;5000934;28;19926;-57
2022/01/31 15:39:04;;;;;;;;;;;;;;;;;;4999936;28;19929;-58
2022/01/31 15:41:31;;;;;;;;;;;;;;;;;;4999899;28;19922;-56
2022/01/31 15:43:58;;;;;;;;;;;;;;;;;;5000369;28;19941;-58
2022/01/31 15:46:24;;;;;;;;;;;;;;;;;;5000691;28;19928;-57
2022/01/31 15:48:49;;;;;;;;;;;;;;;;;;5000202;28;19921;-57
2022/01/31 15:51:15;;;;;;;;;;;;;;;;;;5000645;28;20850;-57
2022/01/31 15:53:40;;;;;;;;;;;;;;;;;;5000299;28;19925;-58
2022/01/31 15:56:05;;;;;;;;;;;;;;;;;;5000370;28;20051;-57
2022/01/31 15:58:31;;;;;;;;;;;;;;;;;;4999242;28;20016;-57
2022/01/31 16:01:01;;;;;;;;;;;;;;;;;;5000515;28;19980;-57
2022/01/31 16:03:26;;;;;;;;;;;;;;;;;;4999636;28;19936;-56
2022/01/31 16:05:52;;;;;;;;;;;;;;;;;;4999277;28;19925;-57
2022/01/31 16:08:17;;;;;;;;;;;;;;;;;;4998237;28;19932;-56
2022/01/31 16:10:46;;;;;;;;;;;;;;;;;;5000233;28;20005;-58
2022/01/31 16:13:13;;;;;;;;;;;;;;;;;;4999791;28;19932;-58
2022/01/31 16:15:38;;;;;;;;;;;;;;;;;;4998332;28;19925;-58
2022/01/31 16:18:03;;;;;;;;;;;;;;;;;;4998798;28;19917;-58
2022/01/31 16:20:29;;;;;;;;;;;;;;;;;;4999118;28;19929;-58
2022/01/31 16:22:55;;;;;;;;;;;;;;;;;;4999452;28;20616;-53
2022/01/31 16:25:21;;;;;;;;;;;;;;;;;;4998875;28;20406;-58
2022/01/31 16:27:47;;;;;;;;;;;;;;;;;;4999937;28;19921;-57
2022/01/31 16:30:12;;;;;;;;;;;;;;;;;;4999375;28;19958;-58
2022/01/31 16:32:38;;;;;;;;;;;;;;;;;;4997942;28;19925;-56
2022/01/31 16:35:03;;;;;;;;;;;;;;;;;;4998472;28;19961;-57
2022/01/31 16:37:29;;;;;;;;;;;;;;;;;;4998553;28;20390;-56
2022/01/31 16:39:54;;;;;;;;;;;;;;;;;;4998042;28;19933;-58
2022/01/31 16:42:19;;;;;;;;;;;;;;;;;;4998894;28;20421;-57
2022/01/31 16:44:45;;;;;;;;;;;;;;;;;;4999659;28;20439;-58
2022/01/31 16:47:10;;;;;;;;;;;;;;;;;;4999109;28;19964;-57
2022/01/31 16:49:36;;;;;;;;;;;;;;;;;;4998772;28;19922;-58
2022/01/31 16:52:01;;;;;;;;;;;;;;;;;;4999801;28;20290;-56
2022/01/31 16:54:27;;;;;;;;;;;;;;;;;;4997025;28;19921;-56
2022/01/31 16:56:52;;;;;;;;;;;;;;;;;;4998277;28;19925;-58
2022/01/31 16:59:17;;;;;;;;;;;;;;;;;;4998318;28;20472;-57
2022/01/31 17:01:43;;;;;;;;;;;;;;;;;;4999471;28;20374;-57
2022/01/31 17:04:08;;;;;;;;;;;;;;;;;;4999163;28;20515;-59
2022/01/31 17:06:34;;;;;;;;;;;;;;;;;;4998843;28;19951;-58
2022/01/31 17:08:59;;;;;;;;;;;;;;;;;;4992097;28;19921;-55
2022/01/31 17:11:28;;;;;;;;;;;;;;;;;;4999309;28;19952;-58
2022/01/31 17:13:54;;;;;;;;;;;;;;;;;;5000268;28;20546;-57
2022/01/31 17:16:19;;;;;;;;;;;;;;;;;;4999530;28;19922;-55